Time;durP1;ratioP1;P1;durP2;ratioP2;P2;SDS_P1;SDS_P2;PMS_P1;PMS_P2;Temp;Humidity;BMP_temperature;BMP_pressure;BME280_temperature;BME280_humidity;BME280_pressure;Samples;Min_cycle;Max_cycle;Signal;HPM_P1;HPM_P2
2021/12/08 00:00:13;;;;;;;5.23;1.27;;;4.40;99.90;;;;;;5035446;28;20187;-77
2021/12/08 00:02:39;;;;;;;2.73;1.23;;;4.50;99.90;;;;;;5034196;28;20180;-77
2021/12/08 00:05:06;;;;;;;5.90;1.67;;;4.50;99.90;;;;;;5035487;28;20192;-77
2021/12/08 00:07:33;;;;;;;8.13;1.67;;;4.50;99.90;;;;;;5035708;28;20275;-77
2021/12/08 00:10:16;;;;;;;4.73;1.40;;;4.40;99.90;;;;;;5034005;28;20215;-77
2021/12/08 00:13:03;;;;;;;4.03;1.57;;;4.50;99.90;;;;;;5035537;28;20191;-77
2021/12/08 00:15:30;;;;;;;2.63;1.30;;;4.50;99.90;;;;;;5035222;28;20203;-77
2021/12/08 00:17:56;;;;;;;5.27;1.30;;;4.50;99.90;;;;;;5033797;28;20282;-76
2021/12/08 00:20:22;;;;;;;7.33;1.60;;;4.50;99.90;;;;;;5033848;28;20234;-76
2021/12/08 00:22:48;;;;;;;7.37;1.40;;;4.50;99.90;;;;;;5035058;28;20176;-76
2021/12/08 00:25:13;;;;;;;2.03;1.50;;;4.60;99.90;;;;;;5035795;28;20692;-76
2021/12/08 00:27:39;;;;;;;6.83;1.60;;;4.60;99.90;;;;;;5035323;28;20188;-77
2021/12/08 00:30:06;;;;;;;7.37;1.40;;;4.60;99.90;;;;;;5035077;28;20177;-76
2021/12/08 00:32:33;;;;;;;4.63;1.37;;;4.60;99.90;;;;;;5033830;28;20677;-76
2021/12/08 00:34:59;;;;;;;4.47;1.40;;;4.70;99.90;;;;;;5035069;28;20222;-76
2021/12/08 00:37:26;;;;;;;4.17;1.60;;;4.70;99.90;;;;;;5034856;28;20286;-76
2021/12/08 00:39:52;;;;;;;5.57;1.37;;;4.70;99.90;;;;;;5034469;28;20191;-77
2021/12/08 00:42:18;;;;;;;2.67;1.30;;;4.70;99.90;;;;;;5033416;28;20184;-76
2021/12/08 00:44:44;;;;;;;4.23;1.50;;;4.70;99.90;;;;;;5034531;28;20185;-77
2021/12/08 00:47:10;;;;;;;5.57;1.50;;;4.70;99.90;;;;;;5033370;28;20192;-76
2021/12/08 00:49:35;;;;;;;4.77;1.40;;;4.70;99.90;;;;;;5034563;28;20215;-76
2021/12/08 00:52:01;;;;;;;3.63;0.83;;;4.80;99.90;;;;;;5033310;28;20267;-76
2021/12/08 00:54:26;;;;;;;6.37;1.53;;;4.80;99.90;;;;;;5033110;28;20227;-77
2021/12/08 00:56:52;;;;;;;1.80;1.00;;;4.80;99.90;;;;;;5034017;28;20267;-75
2021/12/08 00:59:17;;;;;;;3.27;1.47;;;4.80;99.90;;;;;;5033197;28;20184;-76
2021/12/08 01:01:43;;;;;;;3.30;1.37;;;4.80;99.90;;;;;;5034868;28;20211;-76
2021/12/08 01:04:09;;;;;;;4.40;1.63;;;4.90;99.90;;;;;;5032783;28;20300;-77
2021/12/08 01:06:35;;;;;;;6.00;1.33;;;4.90;99.90;;;;;;5033970;28;20172;-77
2021/12/08 01:09:00;;;;;;;5.63;1.20;;;4.80;99.90;;;;;;5034636;28;20768;-77
2021/12/08 01:11:26;;;;;;;4.10;1.50;;;4.90;99.90;;;;;;5033936;28;20263;-77
2021/12/08 01:13:53;;;;;;;2.97;1.30;;;4.80;99.90;;;;;;5034530;28;20197;-77
2021/12/08 01:16:21;;;;;;;5.53;1.30;;;4.90;99.90;;;;;;5032850;28;20227;-76
2021/12/08 01:18:46;;;;;;;2.93;1.30;;;4.90;99.90;;;;;;5034164;28;20180;-77
2021/12/08 01:21:13;;;;;;;3.00;1.30;;;4.90;99.90;;;;;;5033815;28;20187;-76
2021/12/08 01:23:39;;;;;;;3.87;1.40;;;4.90;99.90;;;;;;5032596;28;20184;-76
2021/12/08 01:26:07;;;;;;;3.53;1.47;;;4.90;99.90;;;;;;5033782;28;20414;-76
2021/12/08 01:28:33;;;;;;;2.83;1.30;;;4.90;99.90;;;;;;5035415;28;20184;-76
2021/12/08 01:31:00;;;;;;;3.83;1.20;;;4.90;99.90;;;;;;5032545;28;20270;-76
2021/12/08 01:33:30;;;;;;;4.07;1.37;;;4.90;99.90;;;;;;5034247;28;20173;-77
2021/12/08 01:35:57;;;;;;;2.27;1.17;;;4.90;99.90;;;;;;5032373;28;20271;-76
2021/12/08 01:38:24;;;;;;;2.70;1.20;;;4.90;99.90;;;;;;5033804;28;20204;-77
2021/12/08 01:40:50;;;;;;;2.30;1.17;;;4.90;99.90;;;;;;5033479;28;20262;-77
2021/12/08 01:46:07;;;;;;;3.03;1.27;;;4.90;99.90;;;;;;5003017;28;20180;-76
2021/12/08 01:48:35;;;;;;;6.80;1.50;;;4.80;99.90;;;;;;5033748;28;20164;-77
2021/12/08 01:51:10;;;;;;;4.57;1.30;;;4.90;99.90;;;;;;5033654;28;20212;-77
2021/12/08 01:53:37;;;;;;;3.33;1.50;;;4.90;99.90;;;;;;5033486;28;20164;-77
2021/12/08 01:56:03;;;;;;;3.10;1.20;;;4.80;99.90;;;;;;5032037;28;20215;-77
2021/12/08 01:58:29;;;;;;;2.10;1.27;;;4.90;99.90;;;;;;5031992;28;20215;-77
2021/12/08 02:01:02;;;;;;;3.97;1.37;;;4.90;99.90;;;;;;5034301;28;20175;-76
2021/12/08 02:03:28;;;;;;;2.57;1.30;;;4.90;99.90;;;;;;5033448;28;20156;-77
2021/12/08 02:05:55;;;;;;;5.57;1.20;;;4.90;99.90;;;;;;5033372;28;20176;-76
2021/12/08 02:08:21;;;;;;;4.43;1.33;;;4.90;99.90;;;;;;5033057;28;20176;-77
2021/12/08 02:10:47;;;;;;;1.80;1.23;;;5.00;99.90;;;;;;5031951;28;20191;-76
2021/12/08 02:13:14;;;;;;;1.83;1.10;;;5.00;99.90;;;;;;5033184;28;20645;-76
2021/12/08 02:15:40;;;;;;;2.57;1.40;;;5.00;99.90;;;;;;5032985;28;20273;-77
2021/12/08 02:18:09;;;;;;;7.00;1.63;;;5.00;99.90;;;;;;5033241;28;20208;-77
2021/12/08 02:20:35;;;;;;;3.67;1.10;;;5.00;99.90;;;;;;5032166;28;20191;-77
2021/12/08 02:23:01;;;;;;;1.67;1.10;;;5.00;99.90;;;;;;5040333;28;20267;-77
2021/12/08 02:25:27;;;;;;;3.60;1.73;;;5.00;99.90;;;;;;5042647;28;20216;-77
2021/12/08 02:27:55;;;;;;;3.40;1.47;;;5.10;99.90;;;;;;5042454;28;20242;-77
2021/12/08 02:30:40;;;;;;;2.50;1.17;;;5.10;99.90;;;;;;5039894;28;20241;-77
2021/12/08 02:47:08;;;;;;;2.63;1.30;;;5.10;99.90;;;;;;5040165;28;20601;-77
2021/12/08 02:49:34;;;;;;;2.53;1.27;;;5.20;99.90;;;;;;5039231;28;20238;-77
2021/12/08 02:52:01;;;;;;;2.40;0.93;;;5.20;99.90;;;;;;5038222;28;20188;-77
2021/12/08 02:54:34;;;;;;;4.87;1.50;;;5.20;99.90;;;;;;5038007;28;20230;-76
2021/12/08 02:56:59;;;;;;;4.10;1.33;;;5.20;99.90;;;;;;5039520;28;20200;-76
2021/12/08 02:59:25;;;;;;;1.33;0.93;;;5.30;99.90;;;;;;5039088;28;20227;-77
2021/12/08 03:01:51;;;;;;;2.13;1.07;;;5.20;99.90;;;;;;5038158;28;20192;-77
2021/12/08 03:04:17;;;;;;;1.40;0.90;;;5.30;99.90;;;;;;5038107;28;20223;-77
2021/12/08 03:06:42;;;;;;;1.83;1.10;;;5.30;99.90;;;;;;5039048;28;20188;-76
2021/12/08 03:09:08;;;;;;;2.10;1.03;;;5.30;99.90;;;;;;5039152;28;20192;-77
2021/12/08 03:11:34;;;;;;;2.03;1.20;;;5.30;99.90;;;;;;5039413;28;20561;-77
2021/12/08 03:14:07;;;;;;;2.10;1.07;;;5.30;99.90;;;;;;5038754;28;20217;-77
2021/12/08 03:16:35;;;;;;;1.97;1.10;;;5.40;99.90;;;;;;5022873;28;20595;-75
2021/12/08 03:19:01;;;;;;;3.03;1.30;;;5.30;99.90;;;;;;5038176;28;20187;-78
2021/12/08 03:21:31;;;;;;;1.43;1.00;;;5.30;99.90;;;;;;5039368;28;20191;-77
2021/12/08 03:26:55;;;;;;;3.07;1.40;;;5.30;99.90;;;;;;5039850;28;20210;-77
2021/12/08 03:29:47;;;;;;;4.40;1.20;;;5.30;99.90;;;;;;5039513;28;20247;-77
2021/12/08 03:32:14;;;;;;;2.37;1.30;;;5.30;99.90;;;;;;5038655;28;20676;-76
2021/12/08 03:34:51;;;;;;;1.87;1.10;;;5.30;99.90;;;;;;5035598;28;20214;-76
2021/12/08 03:37:20;;;;;;;1.80;1.23;;;5.40;99.90;;;;;;5017878;28;20291;-77
2021/12/08 03:39:46;;;;;;;3.13;1.30;;;5.30;99.90;;;;;;5035913;28;20196;-76
2021/12/08 03:42:11;;;;;;;2.30;1.20;;;5.30;99.90;;;;;;5035979;28;20740;-77
2021/12/08 03:44:38;;;;;;;2.40;1.20;;;5.30;99.90;;;;;;5034581;28;20204;-77
2021/12/08 03:47:12;;;;;;;1.53;1.10;;;5.30;99.90;;;;;;5035991;28;20181;-77
2021/12/08 03:49:38;;;;;;;2.60;1.00;;;5.30;99.90;;;;;;5034400;28;20564;-77
2021/12/08 03:52:04;;;;;;;2.70;1.30;;;5.40;99.90;;;;;;5035776;28;20184;-76
2021/12/08 03:54:30;;;;;;;1.80;1.10;;;5.40;99.90;;;;;;5017312;28;20635;-77
2021/12/08 03:56:56;;;;;;;2.20;1.07;;;5.40;99.90;;;;;;5035559;28;20221;-77
2021/12/08 03:59:21;;;;;;;3.60;1.13;;;5.40;99.90;;;;;;5035809;28;20262;-77
2021/12/08 04:01:47;;;;;;;1.60;1.10;;;5.40;99.90;;;;;;5035596;28;20255;-77
2021/12/08 04:04:13;;;;;;;1.83;1.23;;;5.40;99.90;;;;;;5035273;28;20188;-76
2021/12/08 04:06:45;;;;;;;2.03;1.20;;;5.30;99.90;;;;;;5034357;28;20216;-76
2021/12/08 04:09:53;;;;;;;1.87;1.00;;;5.30;99.90;;;;;;5034239;28;20555;-77
2021/12/08 04:12:00;;;;;;;2.33;1.40;;;5.30;99.90;;;;;;5024908;28;20245;-76
2021/12/08 04:14:35;;;;;;;3.33;1.37;;;5.30;99.90;;;;;;5035375;28;20200;-77
2021/12/08 04:17:13;;;;;;;3.27;1.40;;;5.40;99.90;;;;;;5033919;28;20661;-77
2021/12/08 04:19:41;;;;;;;2.30;1.40;;;5.30;99.90;;;;;;5033993;28;20169;-77
2021/12/08 04:22:13;;;;;;;1.70;1.00;;;5.30;99.90;;;;;;5035155;28;20257;-76
2021/12/08 04:24:43;;;;;;;2.80;1.30;;;5.30;99.90;;;;;;5034724;28;20196;-77
2021/12/08 04:27:13;;;;;;;2.07;1.47;;;5.30;99.90;;;;;;5033754;28;20192;-77
2021/12/08 04:29:41;;;;;;;3.97;1.40;;;5.30;99.90;;;;;;5035068;28;20646;-76
2021/12/08 04:32:14;;;;;;;3.77;1.83;;;5.30;99.90;;;;;;5034861;28;20709;-76
2021/12/08 04:34:41;;;;;;;2.60;1.20;;;5.30;99.90;;;;;;5034815;28;20612;-77
2021/12/08 04:37:18;;;;;;;1.93;1.30;;;5.30;99.90;;;;;;5033531;28;20628;-77
2021/12/08 04:45:22;;;;;;;2.03;1.40;;;5.20;99.90;;;;;;5003593;28;20262;-77
2021/12/08 05:09:51;;;;;;;2.90;1.70;;;5.40;99.90;;;;;;5034518;28;20693;-75
2021/12/08 05:12:23;;;;;;;6.10;1.90;;;5.30;99.90;;;;;;5034053;28;20189;-77
2021/12/08 05:15:05;;;;;;;4.27;1.80;;;5.30;99.90;;;;;;5034376;28;20274;-77
2021/12/08 05:17:36;;;;;;;4.97;1.73;;;5.30;99.90;;;;;;5032982;28;20212;-77
2021/12/08 05:20:15;;;;;;;5.30;1.80;;;5.30;99.90;;;;;;5034344;28;20173;-77
2021/12/08 05:22:48;;;;;;;5.73;2.03;;;5.30;99.90;;;;;;5014648;28;20197;-77
2021/12/08 05:25:17;;;;;;;6.97;2.27;;;5.30;99.90;;;;;;5013246;28;20205;-76
2021/12/08 05:27:46;;;;;;;3.63;1.80;;;5.20;99.90;;;;;;5014776;28;20188;-77
2021/12/08 05:30:31;;;;;;;3.00;1.90;;;5.20;99.90;;;;;;5014682;28;20181;-77
2021/12/08 05:32:59;;;;;;;3.47;1.90;;;5.10;99.90;;;;;;5015119;28;20169;-76
2021/12/08 05:35:27;;;;;;;6.60;2.43;;;5.10;99.90;;;;;;4996376;28;20208;-77
2021/12/08 05:37:53;;;;;;;5.57;2.20;;;5.10;99.90;;;;;;5030402;28;20204;-76
2021/12/08 05:40:29;;;;;;;5.27;1.80;;;5.00;99.90;;;;;;5034989;28;20180;-76
2021/12/08 05:42:55;;;;;;;2.63;1.50;;;5.00;99.90;;;;;;5033594;28;20284;-77
2021/12/08 05:45:22;;;;;;;4.13;1.90;;;5.00;99.90;;;;;;5033964;28;20666;-76
2021/12/08 05:47:50;;;;;;;3.10;1.70;;;5.00;99.90;;;;;;5032002;28;20275;-76
2021/12/08 05:50:41;;;;;;;6.00;2.23;;;5.00;99.90;;;;;;5033375;28;20192;-76
2021/12/08 05:53:07;;;;;;;5.33;1.97;;;5.00;99.90;;;;;;5033261;28;20664;-76
2021/12/08 05:55:35;;;;;;;3.97;1.83;;;5.00;99.90;;;;;;5032697;28;20228;-76
2021/12/08 05:58:02;;;;;;;4.33;2.23;;;5.00;99.90;;;;;;5033245;28;20208;-75
2021/12/08 06:00:34;;;;;;;3.93;2.07;;;5.00;99.90;;;;;;5065424;23;20240;-75
2021/12/08 06:03:00;;;;;;;4.87;1.97;;;5.00;99.90;;;;;;5054844;28;20226;-75
2021/12/08 06:05:27;;;;;;;3.10;2.00;;;5.00;99.90;;;;;;5036556;28;20226;-75
2021/12/08 06:07:54;;;;;;;5.23;2.33;;;5.00;99.90;;;;;;5054060;28;20204;-76
2021/12/08 06:10:23;;;;;;;4.10;2.17;;;5.00;99.90;;;;;;5054094;28;20239;-76
2021/12/08 06:12:49;;;;;;;3.70;2.10;;;5.00;99.90;;;;;;5053731;28;20190;-75
2021/12/08 06:15:15;;;;;;;3.27;2.07;;;5.00;99.90;;;;;;5053359;28;20182;-76
2021/12/08 06:17:41;;;;;;;4.23;2.13;;;4.90;99.90;;;;;;5035378;28;20211;-76
2021/12/08 06:20:11;;;;;;;2.87;1.70;;;5.00;99.90;;;;;;5053385;28;20665;-76
2021/12/08 06:22:38;;;;;;;9.23;2.77;;;4.90;99.90;;;;;;5035468;28;20585;-76
2021/12/08 06:25:04;;;;;;;5.63;2.30;;;4.90;99.90;;;;;;5053394;28;20700;-76
2021/12/08 06:27:30;;;;;;;4.33;2.07;;;4.90;99.90;;;;;;5053082;28;20266;-76
2021/12/08 06:29:55;;;;;;;5.07;2.07;;;4.90;99.90;;;;;;5052339;28;20286;-76
2021/12/08 06:32:21;;;;;;;6.23;2.60;;;4.90;99.90;;;;;;5052914;28;20175;-75
2021/12/08 06:34:55;;;;;;;5.77;2.10;;;4.90;99.90;;;;;;5053597;28;20637;-76
2021/12/08 06:37:34;;;;;;;6.40;2.43;;;4.90;99.90;;;;;;5052723;28;20190;-76
2021/12/08 06:40:25;;;;;;;4.67;2.40;;;4.90;99.90;;;;;;5052819;28;20285;-76
2021/12/08 06:42:54;;;;;;;3.07;2.07;;;4.90;99.90;;;;;;5052548;28;20645;-76
2021/12/08 06:45:23;;;;;;;4.77;2.30;;;4.90;99.90;;;;;;5035350;28;20198;-76
2021/12/08 06:47:52;;;;;;;7.17;2.60;;;4.90;99.90;;;;;;5053824;28;20183;-75
2021/12/08 06:50:24;;;;;;;3.77;1.97;;;4.90;99.90;;;;;;5034902;28;20204;-76
2021/12/08 06:52:50;;;;;;;5.07;2.17;;;5.00;99.90;;;;;;5035422;28;20211;-76
2021/12/08 06:55:20;;;;;;;8.20;2.37;;;4.90;99.90;;;;;;5035092;28;20179;-76
2021/12/08 06:57:53;;;;;;;8.03;2.67;;;4.90;99.90;;;;;;5034996;28;20274;-75
2021/12/08 07:00:54;;;;;;;3.30;2.30;;;5.00;99.90;;;;;;5035018;28;20310;-76
2021/12/08 07:03:51;;;;;;;4.67;2.30;;;5.00;99.90;;;;;;5053437;28;20238;-75
2021/12/08 07:08:58;;;;;;;7.30;2.53;;;5.00;99.90;;;;;;5055073;28;20168;-75
2021/12/08 07:11:25;;;;;;;3.83;2.40;;;5.00;99.90;;;;;;5057146;28;20199;-76
2021/12/08 07:13:54;;;;;;;6.53;2.77;;;5.00;99.90;;;;;;5056967;28;20174;-76
2021/12/08 07:16:24;;;;;;;9.30;2.80;;;5.00;99.90;;;;;;5038701;28;20676;-76
2021/12/08 07:18:57;;;;;;;4.83;2.20;;;5.00;99.90;;;;;;5038878;28;20191;-76
2021/12/08 07:21:32;;;;;;;7.40;2.50;;;5.00;99.90;;;;;;5056371;28;20187;-76
2021/12/08 07:24:09;;;;;;;7.30;2.23;;;5.00;99.90;;;;;;5056292;28;20543;-76
2021/12/08 07:26:39;;;;;;;7.43;2.33;;;5.00;99.90;;;;;;5056148;28;20202;-77
2021/12/08 07:29:07;;;;;;;6.70;2.20;;;5.00;99.90;;;;;;5038623;28;20194;-76
2021/12/08 07:31:43;;;;;;;6.90;2.37;;;5.00;99.90;;;;;;5056849;28;20192;-76
2021/12/08 07:34:14;;;;;;;4.57;2.17;;;5.00;99.90;;;;;;5056414;28;20187;-76
2021/12/08 07:36:42;;;;;;;5.40;2.07;;;4.90;99.90;;;;;;5056108;28;20191;-76
2021/12/08 07:39:19;;;;;;;7.67;2.03;;;4.90;99.90;;;;;;5056216;28;20203;-76
2021/12/08 07:41:52;;;;;;;4.37;2.40;;;4.90;99.90;;;;;;5056129;28;20731;-76
2021/12/08 07:44:20;;;;;;;5.50;2.47;;;4.90;99.90;;;;;;5056387;28;20159;-76
2021/12/08 07:46:50;;;;;;;7.93;2.37;;;4.90;99.90;;;;;;5056163;28;20287;-76
2021/12/08 07:49:25;;;;;;;4.87;2.33;;;4.90;99.90;;;;;;5038347;28;20304;-77
2021/12/08 07:51:57;;;;;;;6.70;2.63;;;4.90;99.90;;;;;;5038491;28;20638;-75
2021/12/08 07:54:23;;;;;;;6.50;2.77;;;4.80;99.90;;;;;;5037892;28;20179;-76
2021/12/08 07:56:55;;;;;;;7.47;2.17;;;4.80;99.90;;;;;;5037629;28;20253;-76
2021/12/08 07:59:21;;;;;;;6.27;2.27;;;4.80;99.90;;;;;;5055620;28;20214;-76
2021/12/08 08:01:50;;;;;;;9.60;2.80;;;4.80;99.90;;;;;;5055288;28;20207;-76
2021/12/08 08:04:20;;;;;;;5.80;2.13;;;4.80;99.90;;;;;;5054889;28;20653;-76
2021/12/08 08:06:50;;;;;;;3.87;2.00;;;4.80;99.90;;;;;;5038477;28;20278;-76
2021/12/08 08:09:27;;;;;;;7.63;2.10;;;4.80;99.90;;;;;;5056473;28;20160;-76
2021/12/08 08:12:00;;;;;;;4.00;1.83;;;4.80;99.90;;;;;;5039072;28;20203;-76
2021/12/08 08:14:29;;;;;;;9.50;2.57;;;4.80;99.90;;;;;;5056673;28;20156;-76
2021/12/08 08:16:57;;;;;;;4.23;1.90;;;4.80;99.90;;;;;;5056910;28;20219;-76
2021/12/08 08:19:29;;;;;;;6.17;2.20;;;4.80;99.90;;;;;;5038640;28;20210;-76
2021/12/08 08:22:02;;;;;;;5.93;1.90;;;4.80;99.90;;;;;;5039246;28;20179;-76
2021/12/08 08:24:28;;;;;;;7.17;2.20;;;4.80;99.90;;;;;;5038971;28;20176;-77
2021/12/08 08:26:57;;;;;;;4.40;1.73;;;4.80;99.90;;;;;;5056653;28;20182;-76
2021/12/08 08:29:23;;;;;;;7.40;2.10;;;4.90;99.90;;;;;;5057085;28;20175;-76
2021/12/08 08:32:04;;;;;;;9.03;2.50;;;4.80;99.90;;;;;;5057221;28;20355;-76
2021/12/08 08:34:37;;;;;;;7.97;2.10;;;4.80;99.90;;;;;;5057018;28;20254;-77
2021/12/08 08:37:07;;;;;;;5.37;2.07;;;4.80;99.90;;;;;;5039139;28;20688;-76
2021/12/08 08:39:35;;;;;;;6.17;2.60;;;4.90;99.90;;;;;;5057262;28;20531;-77
2021/12/08 08:42:05;;;;;;;5.80;2.77;;;4.90;99.90;;;;;;5038785;28;20270;-76
2021/12/08 08:44:54;;;;;;;9.53;2.77;;;4.90;99.90;;;;;;5039176;28;20530;-76
2021/12/08 08:47:26;;;;;;;8.13;2.60;;;4.90;99.90;;;;;;5057646;28;20172;-76
2021/12/08 08:49:52;;;;;;;8.37;2.57;;;4.90;99.90;;;;;;5057023;28;20198;-77
2021/12/08 08:52:34;;;;;;;8.17;3.03;;;4.90;99.90;;;;;;5057172;28;20534;-76
2021/12/08 08:55:04;;;;;;;6.80;2.50;;;4.90;99.90;;;;;;5057770;28;20508;-76
2021/12/08 08:57:36;;;;;;;9.00;2.73;;;5.00;99.90;;;;;;5056666;28;20604;-76
2021/12/08 09:00:22;;;;;;;12.60;2.97;;;5.00;99.90;;;;;;5038073;28;20685;-76
2021/12/08 09:02:50;;;;;;;8.23;2.50;;;5.00;99.90;;;;;;5038640;28;20184;-76
2021/12/08 09:05:24;;;;;;;9.80;2.87;;;5.00;99.90;;;;;;5038664;28;20172;-77
2021/12/08 09:07:53;;;;;;;5.17;2.20;;;5.10;99.90;;;;;;5038641;28;20183;-76
2021/12/08 09:10:45;;;;;;;7.83;2.53;;;5.10;99.90;;;;;;5056346;28;20196;-76
2021/12/08 09:13:20;;;;;;;9.53;2.53;;;5.10;99.90;;;;;;5038683;28;20176;-76
2021/12/08 09:15:53;;;;;;;10.77;2.83;;;5.10;99.90;;;;;;5038665;28;20270;-76
2021/12/08 09:18:24;;;;;;;8.73;2.37;;;5.10;99.90;;;;;;5039082;28;20199;-76
2021/12/08 09:21:01;;;;;;;7.70;2.47;;;5.20;99.90;;;;;;5055952;28;20194;-77
2021/12/08 09:23:36;;;;;;;7.00;3.00;;;5.20;99.90;;;;;;5038444;28;20630;-76
2021/12/08 09:26:09;;;;;;;6.90;3.00;;;5.20;99.90;;;;;;5056551;28;20160;-76
2021/12/08 09:28:41;;;;;;;8.37;2.77;;;5.30;99.90;;;;;;5056324;28;20170;-77
2021/12/08 09:31:19;;;;;;;7.10;2.73;;;5.30;99.90;;;;;;5054850;28;20200;-76
2021/12/08 09:33:53;;;;;;;10.20;2.70;;;5.30;99.90;;;;;;5038093;28;20183;-76
2021/12/08 09:36:25;;;;;;;8.67;2.60;;;5.40;99.90;;;;;;5055928;28;20156;-76
2021/12/08 09:39:00;;;;;;;8.87;3.00;;;5.40;99.90;;;;;;5055700;28;20165;-77
2021/12/08 09:41:46;;;;;;;13.17;2.70;;;5.40;99.90;;;;;;5037807;28;20198;-77
2021/12/08 09:44:34;;;;;;;8.13;2.33;;;5.50;99.90;;;;;;5055868;28;20162;-76
2021/12/08 09:47:00;;;;;;;6.83;1.67;;;5.50;99.90;;;;;;5055781;28;20634;-76
2021/12/08 09:49:28;;;;;;;8.43;2.57;;;5.60;99.90;;;;;;5054537;28;20180;-76
2021/12/08 09:51:57;;;;;;;8.47;1.90;;;5.60;99.90;;;;;;5055064;28;20190;-76
2021/12/08 09:54:23;;;;;;;8.57;2.17;;;5.70;99.90;;;;;;5054496;28;20596;-76
2021/12/08 09:56:50;;;;;;;12.43;2.27;;;5.70;99.90;;;;;;5036716;28;20203;-76
2021/12/08 09:59:17;;;;;;;12.23;2.20;;;5.80;99.90;;;;;;5054879;28;20171;-76
2021/12/08 10:01:44;;;;;;;7.03;2.03;;;5.90;99.90;;;;;;5054822;28;20203;-76
2021/12/08 10:04:12;;;;;;;5.37;1.70;;;5.90;99.90;;;;;;5054838;28;20168;-76
2021/12/08 10:06:40;;;;;;;8.33;1.77;;;5.90;99.90;;;;;;5055268;28;20181;-76
2021/12/08 10:09:06;;;;;;;7.97;2.00;;;5.90;99.90;;;;;;5037280;28;20183;-76
2021/12/08 10:11:32;;;;;;;5.37;2.00;;;6.00;99.90;;;;;;5037097;28;20213;-76
2021/12/08 10:13:59;;;;;;;6.73;1.63;;;6.00;99.90;;;;;;5036722;28;20637;-76
2021/12/08 10:16:26;;;;;;;6.47;1.70;;;6.00;99.90;;;;;;5055496;28;20183;-76
2021/12/08 10:18:53;;;;;;;7.47;2.23;;;6.00;99.90;;;;;;5055111;28;20167;-76
2021/12/08 10:21:20;;;;;;;7.50;1.70;;;6.10;99.90;;;;;;5037370;28;20582;-76
2021/12/08 10:23:48;;;;;;;6.00;1.63;;;6.10;99.90;;;;;;5054905;28;20603;-76
2021/12/08 10:26:13;;;;;;;7.73;1.80;;;6.20;99.90;;;;;;5037672;28;20248;-76
2021/12/08 10:28:50;;;;;;;5.07;1.70;;;6.20;99.90;;;;;;5055405;28;20203;-76
2021/12/08 10:31:27;;;;;;;8.77;2.07;;;6.30;99.90;;;;;;5037285;28;20203;-76
2021/12/08 10:34:23;;;;;;;12.03;1.73;;;6.30;99.90;;;;;;5037185;28;20176;-76
2021/12/08 10:36:54;;;;;;;5.57;1.57;;;6.30;99.90;;;;;;5055437;28;20188;-76
2021/12/08 10:39:36;;;;;;;2.60;1.30;;;6.30;99.90;;;;;;5036541;28;20187;-76
2021/12/08 10:42:08;;;;;;;7.67;1.73;;;6.30;99.90;;;;;;5055378;28;20585;-77
2021/12/08 10:45:23;;;;;;;5.20;1.70;;;6.40;99.90;;;;;;5039761;28;20544;-76
2021/12/08 10:47:54;;;;;;;5.87;1.80;;;6.40;99.90;;;;;;5046837;28;20607;-76
2021/12/08 10:56:13;;;;;;;7.37;1.90;;;6.40;99.90;;;;;;5058430;28;20256;-77
2021/12/08 10:58:43;;;;;;;8.83;2.13;;;6.40;99.90;;;;;;5039804;28;20627;-76
2021/12/08 11:01:21;;;;;;;5.60;1.37;;;6.50;99.90;;;;;;5057726;28;20207;-76
2021/12/08 11:03:48;;;;;;;7.43;1.60;;;6.50;99.90;;;;;;5057637;28;20178;-77
2021/12/08 11:06:17;;;;;;;6.57;1.57;;;6.50;99.90;;;;;;5040097;28;20233;-76
2021/12/08 11:08:54;;;;;;;6.93;1.50;;;6.50;99.90;;;;;;5057385;28;20269;-76
2021/12/08 11:11:30;;;;;;;6.40;1.77;;;6.50;99.90;;;;;;5057655;28;20274;-76
2021/12/08 11:14:00;;;;;;;7.50;1.70;;;6.50;99.90;;;;;;5039522;28;20206;-77
2021/12/08 11:16:27;;;;;;;8.70;2.00;;;6.60;99.90;;;;;;5058023;28;20583;-76
2021/12/08 11:19:09;;;;;;;7.97;1.93;;;6.60;99.90;;;;;;5057598;28;20676;-76
2021/12/08 11:21:38;;;;;;;4.67;2.03;;;6.60;99.90;;;;;;5039819;28;20613;-76
2021/12/08 11:24:10;;;;;;;7.27;1.93;;;6.60;99.90;;;;;;5057706;28;20179;-77
2021/12/08 11:26:40;;;;;;;10.40;2.30;;;6.60;99.90;;;;;;5057964;28;20171;-77
2021/12/08 11:29:14;;;;;;;12.10;2.20;;;6.60;99.90;;;;;;5058188;28;20167;-77
2021/12/08 11:32:02;;;;;;;5.63;2.00;;;6.60;99.90;;;;;;5040274;28;20242;-76
2021/12/08 11:34:35;;;;;;;6.73;2.20;;;6.70;99.90;;;;;;5057962;28;20222;-77
2021/12/08 11:37:07;;;;;;;7.80;2.40;;;6.70;99.90;;;;;;5039401;28;20203;-77
2021/12/08 11:39:39;;;;;;;5.37;2.33;;;6.70;99.90;;;;;;5056804;28;20160;-76
2021/12/08 11:42:19;;;;;;;9.90;1.90;;;6.70;99.90;;;;;;5057249;28;20184;-76
2021/12/08 11:44:50;;;;;;;6.63;1.63;;;6.80;99.90;;;;;;5056995;28;20171;-76
2021/12/08 11:47:27;;;;;;;8.33;1.90;;;6.80;99.90;;;;;;5039738;28;20186;-77
2021/12/08 11:49:56;;;;;;;4.97;1.80;;;6.80;99.90;;;;;;5039387;28;20238;-76
2021/12/08 11:52:29;;;;;;;9.73;1.70;;;6.80;99.90;;;;;;5039551;28;20195;-76
2021/12/08 11:55:02;;;;;;;10.23;2.00;;;6.90;99.90;;;;;;5056656;28;20178;-76
2021/12/08 11:57:36;;;;;;;5.90;1.80;;;6.80;99.90;;;;;;5038911;28;20223;-76
2021/12/08 12:00:15;;;;;;;10.80;1.43;;;6.90;99.90;;;;;;5062920;23;20238;-77
2021/12/08 12:02:53;;;;;;;5.67;1.67;;;6.80;99.90;;;;;;5038866;28;20609;-80
2021/12/08 12:05:22;;;;;;;7.20;1.70;;;6.90;99.90;;;;;;5041372;28;20594;-78
2021/12/08 12:07:48;;;;;;;4.10;1.50;;;6.90;99.90;;;;;;5038307;28;20207;-78
2021/12/08 12:10:17;;;;;;;5.03;1.43;;;6.90;99.90;;;;;;5035626;28;20180;-78
2021/12/08 12:12:43;;;;;;;3.90;1.23;;;6.90;99.90;;;;;;5000639;28;20185;-78
2021/12/08 12:15:12;;;;;;;4.90;1.90;;;6.90;99.90;;;;;;5017707;28;20192;-78
2021/12/08 12:17:38;;;;;;;4.50;1.50;;;6.90;99.90;;;;;;5001053;28;20217;-78
2021/12/08 12:20:25;;;;;;;11.03;1.60;;;6.90;99.90;;;;;;5000632;28;20192;-78
2021/12/08 12:23:22;;;;;;;5.70;1.40;;;6.90;99.90;;;;;;5018042;28;20157;-77
2021/12/08 12:26:11;;;;;;;5.60;1.47;;;6.90;99.90;;;;;;4989000;28;20258;-77
2021/12/08 12:29:02;;;;;;;3.50;1.10;;;6.90;99.90;;;;;;5017305;28;20200;-78
2021/12/08 12:31:32;;;;;;;2.93;1.30;;;6.80;99.90;;;;;;4963668;28;20215;-78
2021/12/08 12:33:58;;;;;;;6.70;1.50;;;6.90;99.90;;;;;;5015412;28;20185;-77
2021/12/08 12:36:27;;;;;;;10.03;1.60;;;6.90;99.90;;;;;;5014005;28;20561;-77
2021/12/08 12:39:08;;;;;;;5.03;1.60;;;6.90;99.90;;;;;;5016064;28;20242;-77
2021/12/08 12:41:34;;;;;;;6.03;1.57;;;6.90;99.90;;;;;;4997761;28;20204;-77
2021/12/08 12:44:23;;;;;;;6.00;1.80;;;6.80;99.90;;;;;;4997828;28;20239;-77
2021/12/08 12:47:11;;;;;;;5.40;1.77;;;6.80;99.90;;;;;;5016683;28;20175;-77
2021/12/08 12:49:40;;;;;;;4.10;1.57;;;6.90;99.90;;;;;;5015576;28;20528;-77
2021/12/08 12:52:08;;;;;;;4.97;1.60;;;6.90;99.90;;;;;;5014398;28;20205;-78
2021/12/08 12:54:34;;;;;;;5.00;1.30;;;6.90;99.90;;;;;;5015063;28;20184;-77
2021/12/08 12:57:03;;;;;;;6.47;2.43;;;6.90;99.90;;;;;;5012199;28;20212;-77
2021/12/08 12:59:43;;;;;;;2.97;1.00;;;6.90;99.90;;;;;;5014492;28;20181;-77
2021/12/08 13:02:20;;;;;;;4.43;1.33;;;6.80;99.90;;;;;;5013074;28;20217;-77
2021/12/08 13:04:58;;;;;;;5.87;1.23;;;6.80;99.90;;;;;;5014521;28;20223;-75
2021/12/08 13:07:27;;;;;;;5.73;1.57;;;6.80;99.90;;;;;;5014319;28;20169;-76
2021/12/08 13:09:54;;;;;;;14.00;1.43;;;6.80;99.90;;;;;;5014209;28;20272;-76
2021/12/08 13:12:38;;;;;;;4.20;1.17;;;6.80;99.90;;;;;;5007762;28;20217;-75
2021/12/08 13:15:13;;;;;;;6.47;1.23;;;6.90;99.90;;;;;;5009875;28;20208;-76
2021/12/08 13:17:58;;;;;;;3.00;1.03;;;6.90;99.90;;;;;;5003156;28;20236;-76
2021/12/08 13:20:25;;;;;;;5.10;1.10;;;6.90;99.90;;;;;;4994614;28;20628;-76
2021/12/08 13:22:56;;;;;;;11.40;1.60;;;6.90;99.90;;;;;;5013977;28;20550;-75
2021/12/08 13:28:18;;;;;;;5.20;1.37;;;6.90;99.90;;;;;;5010184;28;20181;-76
2021/12/08 13:30:54;;;;;;;3.47;1.60;;;6.90;99.90;;;;;;5014001;28;20208;-76
2021/12/08 13:33:22;;;;;;;2.87;0.97;;;6.90;99.90;;;;;;4996186;28;20184;-76
2021/12/08 13:35:48;;;;;;;6.83;1.53;;;6.90;99.90;;;;;;5014000;28;20188;-76
2021/12/08 13:38:14;;;;;;;6.37;1.30;;;6.90;99.90;;;;;;4996115;28;20213;-77
2021/12/08 13:40:43;;;;;;;4.10;1.10;;;6.80;99.90;;;;;;5012366;28;20223;-76
2021/12/08 13:43:09;;;;;;;3.77;1.30;;;6.90;99.90;;;;;;4995951;28;20262;-76
2021/12/08 13:45:44;;;;;;;8.43;1.43;;;6.90;99.90;;;;;;5013569;28;20169;-76
2021/12/08 13:48:11;;;;;;;4.63;1.40;;;6.90;99.90;;;;;;5013825;28;20685;-76
2021/12/08 13:50:37;;;;;;;4.90;1.70;;;6.90;99.90;;;;;;5013449;28;20203;-76
2021/12/08 13:53:08;;;;;;;3.07;1.43;;;6.90;99.90;;;;;;5013523;28;20173;-76
2021/12/08 13:55:41;;;;;;;11.63;1.73;;;6.90;99.90;;;;;;5013755;28;20162;-76
2021/12/08 13:58:19;;;;;;;2.83;1.20;;;6.90;99.90;;;;;;5013295;28;20608;-76
2021/12/08 14:00:54;;;;;;;7.87;1.93;;;6.80;99.90;;;;;;5013239;28;20208;-76
2021/12/08 14:03:40;;;;;;;5.73;1.43;;;6.80;99.90;;;;;;5013652;28;20165;-77
2021/12/08 14:06:09;;;;;;;3.80;1.37;;;6.90;99.90;;;;;;5013419;28;20157;-76
2021/12/08 14:08:38;;;;;;;6.00;1.93;;;6.80;99.90;;;;;;5013284;28;20268;-76
2021/12/08 14:11:13;;;;;;;9.30;1.47;;;6.80;99.90;;;;;;4995570;28;20201;-76
2021/12/08 14:13:44;;;;;;;6.60;1.37;;;6.80;99.90;;;;;;5013253;28;20168;-76